(°C)
24°
26°
27°
29°
29°
29°
27°
(°C)
25°
26°
26°
27°
26°
25°
24°
DNy
DK
DDK
DDK
DDK
D
DDK
(km/h)
5-20
8-14
11-18
14-26
15-29
17-31
16-24
(mm)
0
0
0
0
0
0
0
(%)
28
37
23
32
29
34
30

Napfelkelte

/ 63.1°
sun-icon
UV 4
05:27
20:54
Hold (fogyó sarló) (279°)
02:53
13:13

METAR Innsbruck (LOWI)-ért

Idő Feltételek Hőmérséklet/
Harmatpont
Szél Látási viszonyok Időjárás Felhők Légnyomás Módosítás Nyers
VFR 24°C / 13°C 90º variable 070º to 130º 8kt >10km - Few Clouds 10000ft 1006 No Significant change LOWI 231020Z 09008KT 070V130 9999 FEW100 24/13 Q1006 NOSIG
VFR 23°C / 13°C 100º variable 060º to 180º 4kt >10km - Few Clouds 10000ft 1007 No Significant change LOWI 230950Z 10004KT 060V180 9999 FEW100 23/13 Q1007 NOSIG
VFR 22°C / 14°C 90º variable 050º to 180º 3kt >10km - Few Clouds 10000ft 1008 No Significant change LOWI 230920Z 09003KT 050V180 9999 FEW100 22/14 Q1008 NOSIG
VFR 21°C / 13°C variable 2kt >10km - Scattered Clouds 10000ft 1009 No Significant change LOWI 230850Z VRB02KT 9999 SCT100 21/13 Q1009 NOSIG
VFR 20°C / 14°C 300º variable 260º to 340º 4kt >10km - Scattered Clouds 10000ft 1009 No Significant change LOWI 230820Z 30004KT 260V340 9999 SCT100 20/14 Q1009 NOSIG
VFR 18°C / 14°C 290º variable 260º to 330º 8kt >10km - Broken Clouds 10000ft 1010 No Significant change LOWI 230750Z 29008KT 260V330 9999 BKN100 18/14 Q1010 NOSIG
VFR 18°C / 14°C 270º 8kt >10km - Broken Clouds 10000ft 1010 Temporary: Showers Rain . LOWI 230720Z 27008KT 9999 BKN100 18/14 Q1010 TEMPO SHRA
VFR 17°C / 14°C 280º 5kt >10km - Few Clouds 1500ft
Scattered Clouds 12000ft
1010 Temporary: from 0730 Showers Rain . LOWI 230650Z 28005KT 9999 FEW015 SCT120 17/14 Q1010 TEMPO FM0730 SHRA
VFR 16°C / 14°C 290º 7kt >10km - Few Clouds 1500ft
Scattered Clouds 12000ft
1010 No Significant change LOWI 230620Z 29007KT 9999 FEW015 SCT120 16/14 Q1010 NOSIG
VFR 15°C / 14°C 280º 4kt >10km - Few Clouds 1000ft 1010 No Significant change LOWI 230550Z 28004KT 9999 FEW010 15/14 Q1010 NOSIG
VFR 15°C / 13°C 270º 3kt >10km - Few Clouds 1000ft 1010 No Significant change LOWI 230520Z 27003KT 9999 FEW010 15/13 Q1010 NOSIG
VFR 14°C / 13°C 270º variable 240º to 320º 3kt >10km - Few Clouds 1000ft 1010 No Significant change LOWI 230450Z 27003KT 240V320 9999 FEW010 14/13 Q1010 NOSIG
VFR 14°C / 13°C 250º variable 150º to 280º 3kt >10km - Few Clouds 1000ft 1011 No Significant change LOWI 230420Z 25003KT 150V280 9999 FEW010 14/13 Q1011 NOSIG
VFR 14°C / 13°C variable 2kt >10km - Few Clouds 1000ft 1011 No Significant change LOWI 230350Z VRB02KT 9999 FEW010 14/13 Q1011 NOSIG
VFR 14°C / 13°C variable 2kt >10km - Few Clouds 9000ft 1011 - LOWI 230320Z AUTO VRB02KT 9999 FEW090 14/13 Q1011
VFR 14°C / 13°C variable 2kt >10km - Few Clouds 12000ft 1011 - LOWI 230250Z AUTO VRB02KT 9999 FEW120 14/13 Q1011
VFR 14°C / 13°C 190º variable 160º to 240º 3kt >10km - Scattered Clouds 12000ft 1012 - LOWI 230220Z AUTO 19003KT 160V240 9999 SCT120 14/13 Q1012
VFR 15°C / 14°C 290º 3kt >10km - Few Clouds 9000ft
Broken Clouds 12000ft
1012 - LOWI 230150Z AUTO 29003KT 9999 FEW090 BKN120 15/14 Q1012
VFR 15°C / 14°C 260º 3kt >10km - Scattered Clouds 10000ft
Broken Clouds 12000ft
1012 - LOWI 230120Z AUTO 26003KT 9999 SCT100 BKN120 15/14 Q1012
VFR 14°C / 13°C 200º variable 170º to 230º 3kt >10km - Few Clouds 11000ft
Broken Clouds 12000ft
1012 - LOWI 230050Z AUTO 20003KT 170V230 9999 FEW110 BKN120 14/13 Q1012
VFR 15°C / 14°C 320º variable 290º to 350º 4kt >10km - Few Clouds 500ft
Broken Clouds 11000ft
1012 - LOWI 230020Z AUTO 32004KT 290V350 9999 FEW005 BKN110 15/14 Q1012
VFR 14°C / 13°C variable 2kt >10km - Broken Clouds 11000ft 1013 - LOWI 222350Z AUTO VRB02KT 9999 BKN110 14/13 Q1013
VFR 15°C / 14°C 250º variable 200º to 300º 3kt >10km - Clear 1013 - LOWI 222320Z AUTO 25003KT 200V300 9999 NSC 15/14 Q1013
VFR 15°C / 14°C 360º variable 260º to 030º 3kt >10km - Clear 1013 - LOWI 222250Z AUTO 36003KT 260V030 9999 NCD 15/14 Q1013

VFR

24°C / 13°C

[Több]
Szél 90º variable 070º to 130º 8kt
Látási viszonyok >10km
Időjárás -
Felhők Few Clouds 10000ft
Légnyomás 1006
Módosítás No Significant change
Nyers LOWI 231020Z 09008KT 070V130 9999 FEW100 24/13 Q1006 NOSIG

VFR

23°C / 13°C

[Több]
Szél 100º variable 060º to 180º 4kt
Látási viszonyok >10km
Időjárás -
Felhők Few Clouds 10000ft
Légnyomás 1007
Módosítás No Significant change
Nyers LOWI 230950Z 10004KT 060V180 9999 FEW100 23/13 Q1007 NOSIG

VFR

22°C / 14°C

[Több]
Szél 90º variable 050º to 180º 3kt
Látási viszonyok >10km
Időjárás -
Felhők Few Clouds 10000ft
Légnyomás 1008
Módosítás No Significant change
Nyers LOWI 230920Z 09003KT 050V180 9999 FEW100 22/14 Q1008 NOSIG

VFR

21°C / 13°C

[Több]
Szél variable 2kt
Látási viszonyok >10km
Időjárás -
Felhők Scattered Clouds 10000ft
Légnyomás 1009
Módosítás No Significant change
Nyers LOWI 230850Z VRB02KT 9999 SCT100 21/13 Q1009 NOSIG

VFR

20°C / 14°C

[Több]
Szél 300º variable 260º to 340º 4kt
Látási viszonyok >10km
Időjárás -
Felhők Scattered Clouds 10000ft
Légnyomás 1009
Módosítás No Significant change
Nyers LOWI 230820Z 30004KT 260V340 9999 SCT100 20/14 Q1009 NOSIG

VFR

18°C / 14°C

[Több]
Szél 290º variable 260º to 330º 8kt
Látási viszonyok >10km
Időjárás -
Felhők Broken Clouds 10000ft
Légnyomás 1010
Módosítás No Significant change
Nyers LOWI 230750Z 29008KT 260V330 9999 BKN100 18/14 Q1010 NOSIG

VFR

18°C / 14°C

[Több]
Szél 270º 8kt
Látási viszonyok >10km
Időjárás -
Felhők Broken Clouds 10000ft
Légnyomás 1010
Módosítás Temporary: Showers Rain .
Nyers LOWI 230720Z 27008KT 9999 BKN100 18/14 Q1010 TEMPO SHRA

VFR

17°C / 14°C

[Több]
Szél 280º 5kt
Látási viszonyok >10km
Időjárás -
Felhők Few Clouds 1500ft
Scattered Clouds 12000ft
Légnyomás 1010
Módosítás Temporary: from 0730 Showers Rain .
Nyers LOWI 230650Z 28005KT 9999 FEW015 SCT120 17/14 Q1010 TEMPO FM0730 SHRA

VFR

16°C / 14°C

[Több]
Szél 290º 7kt
Látási viszonyok >10km
Időjárás -
Felhők Few Clouds 1500ft
Scattered Clouds 12000ft
Légnyomás 1010
Módosítás No Significant change
Nyers LOWI 230620Z 29007KT 9999 FEW015 SCT120 16/14 Q1010 NOSIG

VFR

15°C / 14°C

[Több]
Szél 280º 4kt
Látási viszonyok >10km
Időjárás -
Felhők Few Clouds 1000ft
Légnyomás 1010
Módosítás No Significant change
Nyers LOWI 230550Z 28004KT 9999 FEW010 15/14 Q1010 NOSIG

VFR

15°C / 13°C

[Több]
Szél 270º 3kt
Látási viszonyok >10km
Időjárás -
Felhők Few Clouds 1000ft
Légnyomás 1010
Módosítás No Significant change
Nyers LOWI 230520Z 27003KT 9999 FEW010 15/13 Q1010 NOSIG

VFR

14°C / 13°C

[Több]
Szél 270º variable 240º to 320º 3kt
Látási viszonyok >10km
Időjárás -
Felhők Few Clouds 1000ft
Légnyomás 1010
Módosítás No Significant change
Nyers LOWI 230450Z 27003KT 240V320 9999 FEW010 14/13 Q1010 NOSIG

VFR

14°C / 13°C

[Több]
Szél 250º variable 150º to 280º 3kt
Látási viszonyok >10km
Időjárás -
Felhők Few Clouds 1000ft
Légnyomás 1011
Módosítás No Significant change
Nyers LOWI 230420Z 25003KT 150V280 9999 FEW010 14/13 Q1011 NOSIG

VFR

14°C / 13°C

[Több]
Szél variable 2kt
Látási viszonyok >10km
Időjárás -
Felhők Few Clouds 1000ft
Légnyomás 1011
Módosítás No Significant change
Nyers LOWI 230350Z VRB02KT 9999 FEW010 14/13 Q1011 NOSIG

VFR

14°C / 13°C

[Több]
Szél variable 2kt
Látási viszonyok >10km
Időjárás -
Felhők Few Clouds 9000ft
Légnyomás 1011
Módosítás -
Nyers LOWI 230320Z AUTO VRB02KT 9999 FEW090 14/13 Q1011

VFR

14°C / 13°C

[Több]
Szél variable 2kt
Látási viszonyok >10km
Időjárás -
Felhők Few Clouds 12000ft
Légnyomás 1011
Módosítás -
Nyers LOWI 230250Z AUTO VRB02KT 9999 FEW120 14/13 Q1011

VFR

14°C / 13°C

[Több]
Szél 190º variable 160º to 240º 3kt
Látási viszonyok >10km
Időjárás -
Felhők Scattered Clouds 12000ft
Légnyomás 1012
Módosítás -
Nyers LOWI 230220Z AUTO 19003KT 160V240 9999 SCT120 14/13 Q1012

VFR

15°C / 14°C

[Több]
Szél 290º 3kt
Látási viszonyok >10km
Időjárás -
Felhők Few Clouds 9000ft
Broken Clouds 12000ft
Légnyomás 1012
Módosítás -
Nyers LOWI 230150Z AUTO 29003KT 9999 FEW090 BKN120 15/14 Q1012

VFR

15°C / 14°C

[Több]
Szél 260º 3kt
Látási viszonyok >10km
Időjárás -
Felhők Scattered Clouds 10000ft
Broken Clouds 12000ft
Légnyomás 1012
Módosítás -
Nyers LOWI 230120Z AUTO 26003KT 9999 SCT100 BKN120 15/14 Q1012

VFR

14°C / 13°C

[Több]
Szél 200º variable 170º to 230º 3kt
Látási viszonyok >10km
Időjárás -
Felhők Few Clouds 11000ft
Broken Clouds 12000ft
Légnyomás 1012
Módosítás -
Nyers LOWI 230050Z AUTO 20003KT 170V230 9999 FEW110 BKN120 14/13 Q1012

VFR

15°C / 14°C

[Több]
Szél 320º variable 290º to 350º 4kt
Látási viszonyok >10km
Időjárás -
Felhők Few Clouds 500ft
Broken Clouds 11000ft
Légnyomás 1012
Módosítás -
Nyers LOWI 230020Z AUTO 32004KT 290V350 9999 FEW005 BKN110 15/14 Q1012

VFR

14°C / 13°C

[Több]
Szél variable 2kt
Látási viszonyok >10km
Időjárás -
Felhők Broken Clouds 11000ft
Légnyomás 1013
Módosítás -
Nyers LOWI 222350Z AUTO VRB02KT 9999 BKN110 14/13 Q1013

VFR

15°C / 14°C

[Több]
Szél 250º variable 200º to 300º 3kt
Látási viszonyok >10km
Időjárás -
Felhők Clear
Légnyomás 1013
Módosítás -
Nyers LOWI 222320Z AUTO 25003KT 200V300 9999 NSC 15/14 Q1013

VFR

15°C / 14°C

[Több]
Szél 360º variable 260º to 030º 3kt
Látási viszonyok >10km
Időjárás -
Felhők Clear
Légnyomás 1013
Módosítás -
Nyers LOWI 222250Z AUTO 36003KT 260V030 9999 NCD 15/14 Q1013

TAF Innsbruck (LOWI)-ért

From till


Maximum Temperature 26ºC on . Minimum Temperature 16ºC on .
From till Wind 270º 8kt. Visibility 10km or more. Few Clouds 8000ft.
Temporarly from till Wind 90º 10kt. Few Clouds 8000ft.
With 30% probability, Temporarly from till Wind variable 15kt. Gust 25kt. Thunderstorm Rain . Scattered Clouds 5000ft. Broken Clouds 6000ft.
Temporarly from till Wind 250º 15kt. Gust 25kt. Thunderstorm Rain . Scattered Clouds 2000ft. Broken Clouds 4000ft.

Nyers: TAF LOWI 230515Z 2306/2406 27008KT 9999 FEW080 TX26/2313Z TN16/2306Z TEMPO 2307/2319 09010KT FEW080CB PROB30 TEMPO 2313/2318 VRB15G25KT TSRA SCT050CB BKN060 TEMPO 2318/2406 25015G25KT TSRA SCT020 BKN040CB

Radarkép ehhez: Innsbruck

Szitáló eső
Enyhe
Mérsékelt
Erős
Nagyon nehéz
Jégeső

A helyzetjelző helye: Innsbruck. Ez az animáció bemutatja a csapadékradart az elmúlt órára vonatkozóan, valamint előrejelzést az elkövetkező 2 órára. A szitáló eső vagy enyhe hóesés láthatatlan lehet a radar számára. A csapadék intenzitása színkóddal van jelölve, a világoskéktől a narancssárgáig.
Copyright 2022 Deutscher Wetterdienst / meteoblue.

Aktuális műholdas és esőképek ezen a helyen: Innsbruck, Ausztria

A helyszín jelölő a következő helyen van elhelyezve: Innsbruck. [Több]

A valós idejű műholdas kép ötvözi a nappali látható fényt az éjszakai infravörös sugárzással. Éjjel a kép nem sötét, mivel az infravörös sugárzás képes érzékelni a hőmérséklet-különbségeket. Sajnos az alacsony felhőket és a ködöt nehéz megkülönböztetni a talaj hőmérsékletétől, így az éjszaka folyamán szinte láthatatlanok lehetnek. A Meteosat európai műholdképei valós időben frissülnek minden 5 percben. A GOES-16/GOES-17 (Észak- és Dél-Amerika) és Himawari (Ázsia) képei 10 percenként frissülnek.

A csapadékot radarok és műholdak segítségével határozzák meg. A műholdak által mért éjjeli csapadék becslése kevésbé pontos, mint a nappali. A narancssárga keresztek jelölik azokat a helyeket, ahol villámlás észlelhető (Európa felett).

Minden jog fenntartva 2022 EUMETSAT / meteoblue. nowcast által biztosított villámlással kapcsolatos adatok.

Vissza a tetejére